sensor_id;sensor_type;location;lat;lon;timestamp;pressure;altitude;pressure_sealevel;temperature;humidity
2188;BME280;1100;52.014;8.540;2023-04-24T00:02:00;98653.28;;;9.63;75.48
2188;BME280;1100;52.014;8.540;2023-04-24T00:04:29;98646.63;;;9.60;75.32
2188;BME280;1100;52.014;8.540;2023-04-24T00:06:55;98651.28;;;9.54;75.15
2188;BME280;1100;52.014;8.540;2023-04-24T00:09:22;98648.22;;;9.52;75.11
2188;BME280;1100;52.014;8.540;2023-04-24T00:11:47;98639.75;;;9.46;75.35
2188;BME280;1100;52.014;8.540;2023-04-24T00:14:12;98636.69;;;9.44;75.14
2188;BME280;1100;52.014;8.540;2023-04-24T00:16:38;98631.63;;;9.43;74.94
2188;BME280;1100;52.014;8.540;2023-04-24T00:19:03;98645.16;;;9.41;74.60
2188;BME280;1100;52.014;8.540;2023-04-24T00:21:31;98628.41;;;9.35;74.98
2188;BME280;1100;52.014;8.540;2023-04-24T00:23:58;98639.19;;;9.33;74.93
2188;BME280;1100;52.014;8.540;2023-04-24T00:26:23;98638.28;;;9.27;74.88
2188;BME280;1100;52.014;8.540;2023-04-24T00:28:48;98635.97;;;9.25;75.04
2188;BME280;1100;52.014;8.540;2023-04-24T00:31:14;98638.44;;;9.23;75.07
2188;BME280;1100;52.014;8.540;2023-04-24T00:33:39;98634.13;;;9.22;74.97
2188;BME280;1100;52.014;8.540;2023-04-24T00:36:05;98637.19;;;9.24;75.08
2188;BME280;1100;52.014;8.540;2023-04-24T00:38:31;98640.41;;;9.22;74.94
2188;BME280;1100;52.014;8.540;2023-04-24T00:40:56;98637.50;;;9.26;75.10
2188;BME280;1100;52.014;8.540;2023-04-24T00:43:21;98633.66;;;9.24;75.16
2188;BME280;1100;52.014;8.540;2023-04-24T00:45:47;98627.34;;;9.23;75.15
2188;BME280;1100;52.014;8.540;2023-04-24T00:48:12;98633.94;;;9.26;74.82
2188;BME280;1100;52.014;8.540;2023-04-24T00:50:38;98621.44;;;9.30;74.90
2188;BME280;1100;52.014;8.540;2023-04-24T00:53:03;98624.06;;;9.34;74.73
2188;BME280;1100;52.014;8.540;2023-04-24T00:55:29;98628.09;;;9.33;74.62
2188;BME280;1100;52.014;8.540;2023-04-24T00:57:55;98627.00;;;9.30;74.50
2188;BME280;1100;52.014;8.540;2023-04-24T01:00:21;98622.53;;;9.33;74.74
2188;BME280;1100;52.014;8.540;2023-04-24T01:02:47;98621.16;;;9.38;74.47
2188;BME280;1100;52.014;8.540;2023-04-24T01:05:14;98616.66;;;9.40;74.41
2188;BME280;1100;52.014;8.540;2023-04-24T01:07:45;98616.97;;;9.42;74.51
2188;BME280;1100;52.014;8.540;2023-04-24T01:10:11;98613.25;;;9.45;74.58
2188;BME280;1100;52.014;8.540;2023-04-24T01:12:38;98619.88;;;9.48;74.58
2188;BME280;1100;52.014;8.540;2023-04-24T01:15:04;98606.31;;;9.50;74.38
2188;BME280;1100;52.014;8.540;2023-04-24T01:17:30;98605.25;;;9.47;74.19
2188;BME280;1100;52.014;8.540;2023-04-24T01:19:56;98611.44;;;9.42;74.08
2188;BME280;1100;52.014;8.540;2023-04-24T01:22:22;98609.28;;;9.37;74.14
2188;BME280;1100;52.014;8.540;2023-04-24T01:24:48;98612.22;;;9.33;74.33
2188;BME280;1100;52.014;8.540;2023-04-24T01:27:13;98619.00;;;9.32;74.46
2188;BME280;1100;52.014;8.540;2023-04-24T01:29:39;98607.59;;;9.30;74.52
2188;BME280;1100;52.014;8.540;2023-04-24T01:32:05;98614.22;;;9.33;74.41
2188;BME280;1100;52.014;8.540;2023-04-24T01:34:31;98607.91;;;9.32;74.35
2188;BME280;1100;52.014;8.540;2023-04-24T01:36:57;98608.38;;;9.31;74.29
2188;BME280;1100;52.014;8.540;2023-04-24T01:39:22;98600.53;;;9.29;74.52
2188;BME280;1100;52.014;8.540;2023-04-24T01:41:50;98604.22;;;9.26;74.33
2188;BME280;1100;52.014;8.540;2023-04-24T01:44:16;98599.03;;;9.19;74.12
2188;BME280;1100;52.014;8.540;2023-04-24T01:46:42;98596.88;;;9.14;74.37
2188;BME280;1100;52.014;8.540;2023-04-24T01:49:07;98607.50;;;9.06;74.66
2188;BME280;1100;52.014;8.540;2023-04-24T01:51:33;98607.84;;;8.99;74.84
2188;BME280;1100;52.014;8.540;2023-04-24T01:53:58;98607.84;;;8.89;74.63
2188;BME280;1100;52.014;8.540;2023-04-24T01:56:24;98611.69;;;8.82;74.69
2188;BME280;1100;52.014;8.540;2023-04-24T01:58:52;98605.09;;;8.80;75.04
2188;BME280;1100;52.014;8.540;2023-04-24T02:01:19;98608.78;;;8.77;75.54
2188;BME280;1100;52.014;8.540;2023-04-24T02:03:44;98605.56;;;8.78;75.33
2188;BME280;1100;52.014;8.540;2023-04-24T02:06:12;98601.69;;;8.76;75.37
2188;BME280;1100;52.014;8.540;2023-04-24T02:08:40;98604.47;;;8.76;75.58
2188;BME280;1100;52.014;8.540;2023-04-24T02:11:05;98607.69;;;8.74;75.52
2188;BME280;1100;52.014;8.540;2023-04-24T02:13:31;98614.47;;;8.73;75.38
2188;BME280;1100;52.014;8.540;2023-04-24T02:15:58;98603.09;;;8.71;75.65
2188;BME280;1100;52.014;8.540;2023-04-24T02:18:23;98607.41;;;8.72;75.77
2188;BME280;1100;52.014;8.540;2023-04-24T02:20:49;98599.25;;;8.68;76.18
2188;BME280;1100;52.014;8.540;2023-04-24T02:23:14;98600.94;;;8.66;76.10
2188;BME280;1100;52.014;8.540;2023-04-24T02:25:40;98604.66;;;8.63;76.20
2188;BME280;1100;52.014;8.540;2023-04-24T02:28:05;98614.94;;;8.62;76.10
2188;BME280;1100;52.014;8.540;2023-04-24T02:30:30;98619.88;;;8.58;76.19
2188;BME280;1100;52.014;8.540;2023-04-24T02:32:56;98618.66;;;8.59;75.81
2188;BME280;1100;52.014;8.540;2023-04-24T02:35:22;98614.03;;;8.56;75.70
2188;BME280;1100;52.014;8.540;2023-04-24T02:37:47;98619.69;;;8.52;75.75
2188;BME280;1100;52.014;8.540;2023-04-24T02:40:12;98618.28;;;8.47;76.05
2188;BME280;1100;52.014;8.540;2023-04-24T02:42:38;98614.13;;;8.43;76.10
2188;BME280;1100;52.014;8.540;2023-04-24T02:45:03;98617.09;;;8.39;76.34
2188;BME280;1100;52.014;8.540;2023-04-24T02:47:30;98615.06;;;8.40;75.73
2188;BME280;1100;52.014;8.540;2023-04-24T02:49:55;98612.00;;;8.38;75.60
2188;BME280;1100;52.014;8.540;2023-04-24T02:52:20;98610.16;;;8.34;75.88
2188;BME280;1100;52.014;8.540;2023-04-24T02:54:46;98609.97;;;8.29;75.81
2188;BME280;1100;52.014;8.540;2023-04-24T02:57:11;98620.75;;;8.27;76.02
2188;BME280;1100;52.014;8.540;2023-04-24T02:59:36;98614.75;;;8.28;76.50
2188;BME280;1100;52.014;8.540;2023-04-24T03:02:02;98605.06;;;8.33;76.35
2188;BME280;1100;52.014;8.540;2023-04-24T03:04:27;98610.75;;;8.39;76.26
2188;BME280;1100;52.014;8.540;2023-04-24T03:06:52;98612.16;;;8.43;76.25
2188;BME280;1100;52.014;8.540;2023-04-24T03:09:20;98617.09;;;8.48;76.37
2188;BME280;1100;52.014;8.540;2023-04-24T03:11:46;98611.38;;;8.52;76.39
2188;BME280;1100;52.014;8.540;2023-04-24T03:14:12;98612.03;;;8.56;76.46
2188;BME280;1100;52.014;8.540;2023-04-24T03:16:37;98617.41;;;8.60;76.39
2188;BME280;1100;52.014;8.540;2023-04-24T03:19:02;98620.34;;;8.66;76.08
2188;BME280;1100;52.014;8.540;2023-04-24T03:21:28;98615.88;;;8.68;76.10
2188;BME280;1100;52.014;8.540;2023-04-24T03:23:53;98620.03;;;8.73;76.14
2188;BME280;1100;52.014;8.540;2023-04-24T03:26:18;98620.34;;;8.75;76.00
2188;BME280;1100;52.014;8.540;2023-04-24T03:28:44;98618.31;;;8.76;76.14
2188;BME280;1100;52.014;8.540;2023-04-24T03:31:09;98615.72;;;8.81;76.10
2188;BME280;1100;52.014;8.540;2023-04-24T03:33:35;98616.31;;;8.85;76.56
2188;BME280;1100;52.014;8.540;2023-04-24T03:36:01;98614.31;;;8.86;76.15
2188;BME280;1100;52.014;8.540;2023-04-24T03:38:26;98616.31;;;8.85;75.93
2188;BME280;1100;52.014;8.540;2023-04-24T03:40:51;98610.78;;;8.85;76.19
2188;BME280;1100;52.014;8.540;2023-04-24T03:43:17;98611.25;;;8.84;76.42
2188;BME280;1100;52.014;8.540;2023-04-24T03:45:42;98616.47;;;8.82;76.05
2188;BME280;1100;52.014;8.540;2023-04-24T03:48:07;98613.22;;;8.83;76.07
2188;BME280;1100;52.014;8.540;2023-04-24T03:50:33;98608.47;;;8.84;76.22
2188;BME280;1100;52.014;8.540;2023-04-24T03:52:58;98615.53;;;8.85;76.17
2188;BME280;1100;52.014;8.540;2023-04-24T03:55:23;98609.25;;;8.84;76.24
2188;BME280;1100;52.014;8.540;2023-04-24T03:57:49;98611.25;;;8.84;76.26
2188;BME280;1100;52.014;8.540;2023-04-24T04:00:14;98611.69;;;8.82;76.03
2188;BME280;1100;52.014;8.540;2023-04-24T04:02:40;98619.69;;;8.80;76.10
2188;BME280;1100;52.014;8.540;2023-04-24T04:05:05;98607.88;;;8.80;76.05
2188;BME280;1100;52.014;8.540;2023-04-24T04:07:31;98606.63;;;8.81;76.23
2188;BME280;1100;52.014;8.540;2023-04-24T04:09:56;98611.84;;;8.79;76.18
2188;BME280;1100;52.014;8.540;2023-04-24T04:12:21;98612.78;;;8.76;76.03
2188;BME280;1100;52.014;8.540;2023-04-24T04:14:47;98620.63;;;8.77;76.33
2188;BME280;1100;52.014;8.540;2023-04-24T04:17:12;98616.66;;;8.78;76.26
2188;BME280;1100;52.014;8.540;2023-04-24T04:19:37;98614.94;;;8.81;76.29
2188;BME280;1100;52.014;8.540;2023-04-24T04:22:02;98620.78;;;8.83;76.11
2188;BME280;1100;52.014;8.540;2023-04-24T04:24:28;98612.47;;;8.83;75.89
2188;BME280;1100;52.014;8.540;2023-04-24T04:26:53;98619.69;;;8.80;75.95
2188;BME280;1100;52.014;8.540;2023-04-24T04:29:22;98609.72;;;8.83;75.81
2188;BME280;1100;52.014;8.540;2023-04-24T04:31:47;98619.56;;;8.84;76.03
2188;BME280;1100;52.014;8.540;2023-04-24T04:34:13;98615.53;;;8.85;75.55
2188;BME280;1100;52.014;8.540;2023-04-24T04:36:39;98622.63;;;8.86;75.72
2188;BME280;1100;52.014;8.540;2023-04-24T04:39:05;98619.41;;;8.88;75.77
2188;BME280;1100;52.014;8.540;2023-04-24T04:41:31;98634.78;;;8.89;75.74
2188;BME280;1100;52.014;8.540;2023-04-24T04:43:56;98627.72;;;8.88;75.76
2188;BME280;1100;52.014;8.540;2023-04-24T04:46:23;98629.25;;;8.89;75.85
2188;BME280;1100;52.014;8.540;2023-04-24T04:48:51;98638.34;;;8.89;75.79
2188;BME280;1100;52.014;8.540;2023-04-24T04:51:16;98641.25;;;8.85;75.69
2188;BME280;1100;52.014;8.540;2023-04-24T04:53:42;98643.72;;;8.83;75.42
2188;BME280;1100;52.014;8.540;2023-04-24T04:56:07;98646.81;;;8.76;75.46
2188;BME280;1100;52.014;8.540;2023-04-24T04:58:33;98657.44;;;8.68;75.08
2188;BME280;1100;52.014;8.540;2023-04-24T05:00:58;98662.97;;;8.59;75.02
2188;BME280;1100;52.014;8.540;2023-04-24T05:03:24;98667.84;;;8.45;75.28
2188;BME280;1100;52.014;8.540;2023-04-24T05:05:49;98686.56;;;8.32;75.22
2188;BME280;1100;52.014;8.540;2023-04-24T05:08:15;98678.25;;;8.22;75.73
2188;BME280;1100;52.014;8.540;2023-04-24T05:10:40;98672.22;;;8.15;75.51
2188;BME280;1100;52.014;8.540;2023-04-24T05:13:05;98666.88;;;8.11;75.74
2188;BME280;1100;52.014;8.540;2023-04-24T05:15:31;98675.63;;;8.09;76.01
2188;BME280;1100;52.014;8.540;2023-04-24T05:17:56;98667.31;;;8.09;75.77
2188;BME280;1100;52.014;8.540;2023-04-24T05:20:21;98658.84;;;8.13;75.54
2188;BME280;1100;52.014;8.540;2023-04-24T05:22:47;98659.31;;;8.12;76.06
2188;BME280;1100;52.014;8.540;2023-04-24T05:25:12;98663.19;;;8.14;75.99
2188;BME280;1100;52.014;8.540;2023-04-24T05:27:38;98662.41;;;8.14;75.92
2188;BME280;1100;52.014;8.540;2023-04-24T05:30:04;98666.25;;;8.16;76.03
2188;BME280;1100;52.014;8.540;2023-04-24T05:32:29;98664.56;;;8.19;75.74
2188;BME280;1100;52.014;8.540;2023-04-24T05:34:55;98660.09;;;8.21;75.83
2188;BME280;1100;52.014;8.540;2023-04-24T05:37:20;98666.09;;;8.20;75.83
2188;BME280;1100;52.014;8.540;2023-04-24T05:39:45;98667.97;;;8.23;75.70
2188;BME280;1100;52.014;8.540;2023-04-24T05:42:11;98669.03;;;8.26;76.04
2188;BME280;1100;52.014;8.540;2023-04-24T05:44:36;98663.50;;;8.26;75.96
2188;BME280;1100;52.014;8.540;2023-04-24T05:47:02;98674.09;;;8.27;76.21
2188;BME280;1100;52.014;8.540;2023-04-24T05:49:28;98671.78;;;8.26;76.24
2188;BME280;1100;52.014;8.540;2023-04-24T05:51:53;98675.34;;;8.26;76.13
2188;BME280;1100;52.014;8.540;2023-04-24T05:54:18;98681.34;;;8.25;76.38
2188;BME280;1100;52.014;8.540;2023-04-24T05:56:44;98679.34;;;8.25;75.97
2188;BME280;1100;52.014;8.540;2023-04-24T05:59:09;98670.25;;;8.25;76.20
2188;BME280;1100;52.014;8.540;2023-04-24T06:01:34;98675.81;;;8.25;76.13
2188;BME280;1100;52.014;8.540;2023-04-24T06:04:02;98681.19;;;8.28;76.14
2188;BME280;1100;52.014;8.540;2023-04-24T06:06:27;98673.19;;;8.30;76.29
2188;BME280;1100;52.014;8.540;2023-04-24T06:08:54;98681.50;;;8.30;76.47
2188;BME280;1100;52.014;8.540;2023-04-24T06:11:19;98669.66;;;8.30;76.78
2188;BME280;1100;52.014;8.540;2023-04-24T06:13:44;98682.72;;;8.29;76.45
2188;BME280;1100;52.014;8.540;2023-04-24T06:16:10;98678.44;;;8.28;76.42
2188;BME280;1100;52.014;8.540;2023-04-24T06:18:36;98679.97;;;8.29;76.24
2188;BME280;1100;52.014;8.540;2023-04-24T06:21:01;98680.28;;;8.31;76.57
2188;BME280;1100;52.014;8.540;2023-04-24T06:23:27;98680.28;;;8.31;76.49
2188;BME280;1100;52.014;8.540;2023-04-24T06:25:52;98689.81;;;8.30;76.50
2188;BME280;1100;52.014;8.540;2023-04-24T06:28:18;98694.88;;;8.32;76.54
2188;BME280;1100;52.014;8.540;2023-04-24T06:30:43;98681.03;;;8.32;76.60
2188;BME280;1100;52.014;8.540;2023-04-24T06:33:08;98682.88;;;8.35;76.41
2188;BME280;1100;52.014;8.540;2023-04-24T06:35:34;98686.75;;;8.38;76.55
2188;BME280;1100;52.014;8.540;2023-04-24T06:37:59;98699.03;;;8.37;76.29
2188;BME280;1100;52.014;8.540;2023-04-24T06:40:24;98690.75;;;8.37;76.37
2188;BME280;1100;52.014;8.540;2023-04-24T06:42:50;98690.44;;;8.34;76.20
2188;BME280;1100;52.014;8.540;2023-04-24T06:45:18;98686.44;;;8.35;76.17
2188;BME280;1100;52.014;8.540;2023-04-24T06:47:43;98699.22;;;8.33;76.46
2188;BME280;1100;52.014;8.540;2023-04-24T06:50:09;98694.88;;;8.32;76.47
2188;BME280;1100;52.014;8.540;2023-04-24T06:52:34;98688.59;;;8.31;76.42
2188;BME280;1100;52.014;8.540;2023-04-24T06:55:01;98694.13;;;8.31;76.39
2188;BME280;1100;52.014;8.540;2023-04-24T06:57:27;98699.03;;;8.37;76.31
2188;BME280;1100;52.014;8.540;2023-04-24T06:59:53;98693.50;;;8.37;76.41
2188;BME280;1100;52.014;8.540;2023-04-24T07:02:18;98682.44;;;8.37;76.55
2188;BME280;1100;52.014;8.540;2023-04-24T07:04:43;98689.53;;;8.38;76.17
2188;BME280;1100;52.014;8.540;2023-04-24T07:07:08;98681.22;;;8.38;76.11
2188;BME280;1100;52.014;8.540;2023-04-24T07:09:38;98700.31;;;8.45;76.34
2188;BME280;1100;52.014;8.540;2023-04-24T07:12:06;98682.16;;;8.44;76.05
2188;BME280;1100;52.014;8.540;2023-04-24T07:14:32;98687.97;;;8.46;76.03
2188;BME280;1100;52.014;8.540;2023-04-24T07:16:58;98688.91;;;8.43;75.72
2188;BME280;1100;52.014;8.540;2023-04-24T07:19:23;98690.13;;;8.42;75.64
2188;BME280;1100;52.014;8.540;2023-04-24T07:21:49;98687.69;;;8.44;75.67
2188;BME280;1100;52.014;8.540;2023-04-24T07:24:14;98687.53;;;8.47;75.35
2188;BME280;1100;52.014;8.540;2023-04-24T07:26:40;98685.84;;;8.50;75.38
2188;BME280;1100;52.014;8.540;2023-04-24T07:29:06;98687.38;;;8.51;75.31
2188;BME280;1100;52.014;8.540;2023-04-24T07:31:31;98692.03;;;8.54;75.17
2188;BME280;1100;52.014;8.540;2023-04-24T07:33:57;98690.78;;;8.55;75.17
2188;BME280;1100;52.014;8.540;2023-04-24T07:36:23;98693.88;;;8.57;75.14
2188;BME280;1100;52.014;8.540;2023-04-24T07:38:49;98697.28;;;8.62;75.15
2188;BME280;1100;52.014;8.540;2023-04-24T07:41:14;98691.72;;;8.62;75.21
2188;BME280;1100;52.014;8.540;2023-04-24T07:43:40;98700.03;;;8.62;74.83
2188;BME280;1100;52.014;8.540;2023-04-24T07:46:06;98709.28;;;8.68;75.01
2188;BME280;1100;52.014;8.540;2023-04-24T07:48:32;98707.16;;;8.72;74.89
2188;BME280;1100;52.014;8.540;2023-04-24T07:50:57;98716.84;;;8.77;74.64
2188;BME280;1100;52.014;8.540;2023-04-24T07:53:23;98714.53;;;8.75;74.43
2188;BME280;1100;52.014;8.540;2023-04-24T07:55:48;98721.28;;;8.74;74.46
2188;BME280;1100;52.014;8.540;2023-04-24T07:58:14;98729.91;;;8.76;74.33
2188;BME280;1100;52.014;8.540;2023-04-24T08:00:39;98732.38;;;8.74;74.32
2188;BME280;1100;52.014;8.540;2023-04-24T08:03:04;98727.00;;;8.70;74.28
2188;BME280;1100;52.014;8.540;2023-04-24T08:05:30;98724.69;;;8.69;74.07
2188;BME280;1100;52.014;8.540;2023-04-24T08:07:55;98729.44;;;8.68;74.15
2188;BME280;1100;52.014;8.540;2023-04-24T08:10:24;98726.69;;;8.68;74.34
2188;BME280;1100;52.014;8.540;2023-04-24T08:12:50;98727.13;;;8.67;73.89
2188;BME280;1100;52.014;8.540;2023-04-24T08:15:16;98735.91;;;8.65;74.00
2188;BME280;1100;52.014;8.540;2023-04-24T08:17:44;98726.22;;;8.60;73.79
2188;BME280;1100;52.014;8.540;2023-04-24T08:20:10;98732.66;;;8.57;73.86
2188;BME280;1100;52.014;8.540;2023-04-24T08:22:43;98742.03;;;8.60;74.06
2188;BME280;1100;52.014;8.540;2023-04-24T08:25:09;98745.59;;;8.60;74.00
2188;BME280;1100;52.014;8.540;2023-04-24T08:27:35;98729.13;;;8.66;73.94
2188;BME280;1100;52.014;8.540;2023-04-24T08:30:03;98749.94;;;8.80;73.71
2188;BME280;1100;52.014;8.540;2023-04-24T08:32:29;98749.78;;;9.12;73.27
2188;BME280;1100;52.014;8.540;2023-04-24T08:34:55;98742.22;;;9.50;73.45
2188;BME280;1100;52.014;8.540;2023-04-24T08:37:25;98755.22;;;9.87;72.32
2188;BME280;1100;52.014;8.540;2023-04-24T08:39:51;98752.69;;;10.08;71.45
2188;BME280;1100;52.014;8.540;2023-04-24T08:42:20;98745.63;;;10.07;70.83
2188;BME280;1100;52.014;8.540;2023-04-24T08:44:48;98737.09;;;10.10;71.00
2188;BME280;1100;52.014;8.540;2023-04-24T08:47:14;98736.19;;;10.04;70.70
2188;BME280;1100;52.014;8.540;2023-04-24T08:49:40;98732.13;;;9.81;69.95
2188;BME280;1100;52.014;8.540;2023-04-24T08:52:05;98741.13;;;9.57;70.29
2188;BME280;1100;52.014;8.540;2023-04-24T08:54:35;98750.09;;;9.42;70.84
2188;BME280;1100;52.014;8.540;2023-04-24T08:57:01;98744.88;;;9.35;70.87
2188;BME280;1100;52.014;8.540;2023-04-24T08:59:29;98744.38;;;9.27;70.88
2188;BME280;1100;52.014;8.540;2023-04-24T09:01:56;98745.97;;;9.09;70.93
2188;BME280;1100;52.014;8.540;2023-04-24T09:04:22;98748.72;;;9.00;71.33
2188;BME280;1100;52.014;8.540;2023-04-24T09:06:50;98741.94;;;8.92;71.53
2188;BME280;1100;52.014;8.540;2023-04-24T09:09:16;98747.16;;;8.90;71.79
2188;BME280;1100;52.014;8.540;2023-04-24T09:11:42;98747.94;;;8.90;71.77
2188;BME280;1100;52.014;8.540;2023-04-24T09:14:09;98753.94;;;8.89;71.77
2188;BME280;1100;52.014;8.540;2023-04-24T09:16:35;98753.94;;;8.89;72.14
2188;BME280;1100;52.014;8.540;2023-04-24T09:19:00;98751.78;;;8.83;72.21
2188;BME280;1100;52.014;8.540;2023-04-24T09:21:31;98753.34;;;8.84;71.91
2188;BME280;1100;52.014;8.540;2023-04-24T09:24:02;98736.53;;;8.88;71.67
2188;BME280;1100;52.014;8.540;2023-04-24T09:26:34;98753.03;;;8.92;71.73
2188;BME280;1100;52.014;8.540;2023-04-24T09:29:00;98758.25;;;8.90;71.74
2188;BME280;1100;52.014;8.540;2023-04-24T09:31:27;98758.88;;;8.84;71.47
2188;BME280;1100;52.014;8.540;2023-04-24T09:34:00;98756.09;;;8.75;71.77
2188;BME280;1100;52.014;8.540;2023-04-24T09:39:02;98757.75;;;8.72;71.89
2188;BME280;1100;52.014;8.540;2023-04-24T09:41:29;98769.16;;;8.75;71.88
2188;BME280;1100;52.014;8.540;2023-04-24T09:43:56;98765.63;;;8.74;72.05
2188;BME280;1100;52.014;8.540;2023-04-24T09:46:29;98764.09;;;8.73;72.07
2188;BME280;1100;52.014;8.540;2023-04-24T09:48:55;98760.84;;;8.75;71.93
2188;BME280;1100;52.014;8.540;2023-04-24T09:51:34;98763.94;;;8.77;71.84
2188;BME280;1100;52.014;8.540;2023-04-24T09:54:00;98772.72;;;8.84;72.21
2188;BME280;1100;52.014;8.540;2023-04-24T09:56:25;98772.41;;;8.82;71.94
2188;BME280;1100;52.014;8.540;2023-04-24T09:58:51;98767.47;;;8.77;72.29
2188;BME280;1100;52.014;8.540;2023-04-24T10:01:30;98771.00;;;8.68;72.04
2188;BME280;1100;52.014;8.540;2023-04-24T10:03:55;98780.38;;;8.62;72.14
2188;BME280;1100;52.014;8.540;2023-04-24T10:06:21;98767.38;;;8.49;72.61
2188;BME280;1100;52.014;8.540;2023-04-24T10:08:47;98770.13;;;8.40;72.62
2188;BME280;1100;52.014;8.540;2023-04-24T10:11:13;98777.03;;;8.35;73.25
2188;BME280;1100;52.014;8.540;2023-04-24T10:13:39;98777.66;;;8.30;73.85
2188;BME280;1100;52.014;8.540;2023-04-24T10:16:06;98777.00;;;8.26;73.31
2188;BME280;1100;52.014;8.540;2023-04-24T10:18:32;98784.84;;;8.27;73.62
2188;BME280;1100;52.014;8.540;2023-04-24T10:20:59;98784.25;;;8.32;73.74
2188;BME280;1100;52.014;8.540;2023-04-24T10:23:25;98794.59;;;8.41;73.80
2188;BME280;1100;52.014;8.540;2023-04-24T10:25:50;98800.63;;;8.49;73.83
2188;BME280;1100;52.014;8.540;2023-04-24T10:28:18;98799.84;;;8.48;73.68
2188;BME280;1100;52.014;8.540;2023-04-24T10:30:45;98800.00;;;8.45;73.68
2188;BME280;1100;52.014;8.540;2023-04-24T10:33:10;98812.31;;;8.44;73.85
2188;BME280;1100;52.014;8.540;2023-04-24T10:35:40;98807.22;;;8.42;74.13
2188;BME280;1100;52.014;8.540;2023-04-24T10:38:09;98812.31;;;8.44;74.32
2188;BME280;1100;52.014;8.540;2023-04-24T10:40:36;98830.59;;;8.41;74.17
2188;BME280;1100;52.014;8.540;2023-04-24T10:43:03;98817.16;;;8.30;74.45
2188;BME280;1100;52.014;8.540;2023-04-24T10:45:31;98830.34;;;8.17;74.86
2188;BME280;1100;52.014;8.540;2023-04-24T10:47:58;98829.66;;;8.03;74.77
2188;BME280;1100;52.014;8.540;2023-04-24T10:51:13;98841.94;;;8.02;75.13
2188;BME280;1100;52.014;8.540;2023-04-24T10:53:18;98845.28;;;7.97;75.79
2188;BME280;1100;52.014;8.540;2023-04-24T10:55:47;98851.84;;;7.90;75.36
2188;BME280;1100;52.014;8.540;2023-04-24T10:58:13;98852.75;;;7.87;75.98
2188;BME280;1100;52.014;8.540;2023-04-24T11:00:40;98853.34;;;7.82;76.16
2188;BME280;1100;52.014;8.540;2023-04-24T11:03:12;98857.44;;;7.77;76.13
2188;BME280;1100;52.014;8.540;2023-04-24T11:05:58;98861.69;;;7.69;76.73
2188;BME280;1100;52.014;8.540;2023-04-24T11:08:26;98854.66;;;7.55;76.94
2188;BME280;1100;52.014;8.540;2023-04-24T11:11:01;98881.16;;;7.43;77.13
2188;BME280;1100;52.014;8.540;2023-04-24T11:14:00;98872.88;;;7.30;77.61
2188;BME280;1100;52.014;8.540;2023-04-24T11:16:30;98873.38;;;7.15;77.81
2188;BME280;1100;52.014;8.540;2023-04-24T11:21:39;98876.41;;;6.95;78.43
2188;BME280;1100;52.014;8.540;2023-04-24T11:24:25;98885.88;;;6.94;78.19
2188;BME280;1100;52.014;8.540;2023-04-24T11:26:59;98889.97;;;7.02;79.46
2188;BME280;1100;52.014;8.540;2023-04-24T11:29:42;98891.59;;;7.13;79.54
2188;BME280;1100;52.014;8.540;2023-04-24T11:35:08;98894.03;;;7.23;80.57
2188;BME280;1100;52.014;8.540;2023-04-24T11:37:36;98925.44;;;7.17;80.53
2188;BME280;1100;52.014;8.540;2023-04-24T11:40:03;98910.09;;;7.03;80.88
2188;BME280;1100;52.014;8.540;2023-04-24T11:42:41;98919.91;;;6.91;80.92
2188;BME280;1100;52.014;8.540;2023-04-24T11:45:15;98931.22;;;6.83;81.03
2188;BME280;1100;52.014;8.540;2023-04-24T11:47:41;98932.06;;;6.67;81.12
2188;BME280;1100;52.014;8.540;2023-04-24T11:50:09;98930.41;;;6.57;81.21
2188;BME280;1100;52.014;8.540;2023-04-24T11:52:39;98943.88;;;6.55;81.17
2188;BME280;1100;52.014;8.540;2023-04-24T11:57:43;98943.88;;;6.55;81.68
2188;BME280;1100;52.014;8.540;2023-04-24T12:00:18;98942.66;;;6.56;81.17
2188;BME280;1100;52.014;8.540;2023-04-24T12:02:44;98952.38;;;6.60;81.90
2188;BME280;1100;52.014;8.540;2023-04-24T12:05:19;98959.13;;;6.59;81.49
2188;BME280;1100;52.014;8.540;2023-04-24T12:07:44;98963.78;;;6.63;81.46
2188;BME280;1100;52.014;8.540;2023-04-24T12:10:10;98952.72;;;6.63;81.46
2188;BME280;1100;52.014;8.540;2023-04-24T12:12:35;98974.38;;;6.64;82.24
2188;BME280;1100;52.014;8.540;2023-04-24T12:15:01;98970.16;;;6.59;82.99
2188;BME280;1100;52.014;8.540;2023-04-24T12:17:33;98984.06;;;6.56;83.31
2188;BME280;1100;52.014;8.540;2023-04-24T12:20:00;98997.56;;;6.54;84.46
2188;BME280;1100;52.014;8.540;2023-04-24T12:22:26;99002.06;;;6.47;84.18
2188;BME280;1100;52.014;8.540;2023-04-24T12:25:02;99003.38;;;6.43;84.98
2188;BME280;1100;52.014;8.540;2023-04-24T12:27:30;99016.59;;;6.35;84.68
2188;BME280;1100;52.014;8.540;2023-04-24T12:29:57;99017.91;;;6.30;84.71
2188;BME280;1100;52.014;8.540;2023-04-24T12:32:24;99024.97;;;6.31;84.76
2188;BME280;1100;52.014;8.540;2023-04-24T12:34:50;99015.16;;;6.30;84.69
2188;BME280;1100;52.014;8.540;2023-04-24T12:37:17;99024.09;;;6.34;85.31
2188;BME280;1100;52.014;8.540;2023-04-24T12:40:18;99035.50;;;6.37;85.66
2188;BME280;1100;52.014;8.540;2023-04-24T12:42:51;99034.28;;;6.38;86.01
2188;BME280;1100;52.014;8.540;2023-04-24T12:45:18;99034.94;;;6.42;85.69
2188;BME280;1100;52.014;8.540;2023-04-24T12:47:45;99043.22;;;6.42;85.57
2188;BME280;1100;52.014;8.540;2023-04-24T12:50:12;99055.13;;;6.39;86.09
2188;BME280;1100;52.014;8.540;2023-04-24T12:52:38;99049.31;;;6.37;86.05
2188;BME280;1100;52.014;8.540;2023-04-24T12:55:04;99051.50;;;6.42;86.60
2188;BME280;1100;52.014;8.540;2023-04-24T12:57:33;99062.22;;;6.40;86.32
2188;BME280;1100;52.014;8.540;2023-04-24T12:59:58;99064.19;;;6.39;85.93
2188;BME280;1100;52.014;8.540;2023-04-24T13:02:24;99056.28;;;6.41;86.80
2188;BME280;1100;52.014;8.540;2023-04-24T13:04:51;99061.00;;;6.41;86.40
2188;BME280;1100;52.014;8.540;2023-04-24T13:07:17;99067.19;;;6.45;87.13
2188;BME280;1100;52.014;8.540;2023-04-24T13:09:43;99060.22;;;6.40;86.75
2188;BME280;1100;52.014;8.540;2023-04-24T13:12:10;99066.19;;;6.39;86.85
2188;BME280;1100;52.014;8.540;2023-04-24T13:14:35;99074.03;;;6.40;86.68
2188;BME280;1100;52.014;8.540;2023-04-24T13:17:01;99071.19;;;6.44;87.02
2188;BME280;1100;52.014;8.540;2023-04-24T13:19:28;99083.75;;;6.45;87.70
2188;BME280;1100;52.014;8.540;2023-04-24T13:21:55;99085.50;;;6.39;87.14
2188;BME280;1100;52.014;8.540;2023-04-24T13:24:22;99094.34;;;6.33;87.46
2188;BME280;1100;52.014;8.540;2023-04-24T13:26:52;99100.19;;;6.35;88.48
2188;BME280;1100;52.014;8.540;2023-04-24T13:29:18;99092.44;;;6.30;88.22
2188;BME280;1100;52.014;8.540;2023-04-24T13:31:43;99103.91;;;6.29;88.02
2188;BME280;1100;52.014;8.540;2023-04-24T13:34:09;99106.69;;;6.29;88.30
2188;BME280;1100;52.014;8.540;2023-04-24T13:36:35;99099.50;;;6.31;88.28
2188;BME280;1100;52.014;8.540;2023-04-24T13:39:00;99111.56;;;6.38;88.36
2188;BME280;1100;52.014;8.540;2023-04-24T13:41:26;99115.53;;;6.37;88.09